Latest Weather Observations for Melbourne Airport

IDV60801

Issued at 5:02 am EST Monday 27 April 2015 (issued every 30 minutes, with the page automatically refreshed every 10 minutes)

About weather observations | Map of weather stations | Latest weather observations for VIC | Other Formats
Station Details ID: 086282 Name: MELBOURNE AIRPORT Lat: -37.67 Lon: 144.83 Height: 113.4 m
Data from the previous 72 hours. | See also: Recent months at Melbourne Airport
Date/Time
EST
Temp
°C
App
Temp
°C
Dew
Point
Rel
Hum
%
Delta-T
°C
Wind Press
QNH
hPa
Press
MSL
hPa
Rain
since 9 am
mm
Dir
 
Spd
km/h
Gust
km/h
Spd
kts
Gust
kts
27/04:30am 9.8 5.7 7.9 88 0.9 WSW 19 26 10 14 1021.2 1021.1 0.0
27/04:00am 9.9 5.8 7.8 87 1.0 WSW 19 24 10 13 1021.2 1021.1 0.0
27/03:30am 10.0 5.7 7.7 86 1.1 WSW 20 28 11 15 1021.1 1021.0 0.0
27/03:00am 10.0 5.3 7.7 86 1.1 W 22 26 12 14 1021.1 1021.0 0.0
27/02:30am 9.8 5.5 7.7 87 1.0 WSW 20 28 11 15 1021.0 1020.9 0.0
27/02:00am 9.8 4.7 7.5 85 1.1 W 24 32 13 17 1021.0 1020.9 0.0
27/01:30am 9.8 5.0 7.5 85 1.1 W 22 28 12 15 1021.0 1020.9 0.0
27/01:00am 9.9 5.6 7.8 87 1.0 WSW 20 26 11 14 1021.0 1020.9 0.0
27/12:30am 10.3 5.6 7.6 83 1.3 W 22 30 12 16 1021.0 1020.9 0.0
 
Date/Time
EST
Temp
°C
App
Temp
°C
Dew
Point
Rel
Hum
%
Delta-T
°C
Wind Press
QNH
hPa
Press
MSL
hPa
Rain
since 9 am
mm
Dir
 
Spd
km/h
Gust
km/h
Spd
kts
Gust
kts
26/11:30pm 10.0 5.8 7.3 83 1.3 W 19 24 10 13 1021.3 1021.2 0.0
26/11:00pm 9.7 5.8 7.2 84 1.2 W 17 19 9 10 1021.3 1021.2 0.0
26/10:30pm 10.0 5.8 7.5 84 1.2 W 19 26 10 14 1021.3 1021.2 0.0
26/10:00pm 10.7 6.3 7.6 81 1.5 WSW 20 26 11 14 1021.5 1021.4 0.0
26/09:30pm 10.7 6.8 7.1 78 1.7 WSW 17 26 9 14 1021.5 1021.4 0.0
26/09:00pm 10.7 6.8 7.1 78 1.7 WSW 17 20 9 11 1021.4 1021.3 0.0
26/08:30pm 11.0 6.4 6.6 74 2.1 WSW 20 26 11 14 1021.2 1021.1 0.0
26/08:00pm 11.4 6.0 6.3 71 2.4 WSW 24 33 13 18 1021.1 1021.0 0.0
26/07:30pm 11.1 6.7 6.7 74 2.1 WSW 19 24 10 13 1021.0 1020.9 0.0
26/07:00pm 11.6 5.5 6.8 72 2.3 WSW 28 33 15 18 1021.0 1020.9 0.0
26/06:30pm 11.7 5.2 6.7 71 2.4 WSW 30 44 16 24 1020.8 1020.7 0.0
26/05:30pm 12.4 7.0 6.3 66 2.9 SW 24 32 13 17 1020.0 1019.9 0.0
26/05:00pm 12.9 6.3 6.2 64 3.2 SW 30 39 16 21 1019.6 1019.5 0.0
26/04:30pm 13.2 6.9 5.5 59 3.6 WSW 28 33 15 18 1019.5 1019.4 0.0
26/04:00pm 13.2 7.9 6.8 65 3.1 SW 24 39 13 21 1019.2 1019.1 0.0
26/03:30pm 13.7 9.9 7.4 65 3.1 SSW 17 22 9 12 1019.0 1018.9 0.0
26/03:00pm 14.3 10.0 6.9 61 3.6 SSW 19 26 10 14 1018.9 1018.7 0.0
26/02:30pm 14.3 9.0 5.2 54 4.3 SSW 22 30 12 16 1018.5 1018.3 0.0
26/02:00pm 14.6 8.4 4.5 50 4.7 SW 26 35 14 19 1018.5 1018.3 0.0
26/01:30pm 14.0 7.0 5.8 57 3.9 SW 32 39 17 21 1018.5 1018.3 0.0
26/12:00pm 12.2 6.3 9.0 81 1.6 SW 30 37 16 20 1019.2 1019.1 0.0
26/11:30am 12.7 7.7 9.4 80 1.7 SSW 26 32 14 17 1019.1 1019.0 0.0
26/11:26am 12.7 7.4 9.8 82 1.5 SSW 28 37 15 20 1019.2 1019.1 0.0
26/11:00am 11.6 6.5 9.2 85 1.2 SW 26 32 14 17 1019.1 1019.0 0.0
26/10:46am 11.5 7.5 10.3 92 0.6 SW 22 30 12 16 1019.2 1019.1 0.0
26/10:30am 10.7 5.1 10.1 96 0.3 SW 30 35 16 19 1019.2 1019.1 0.0
26/10:17am 10.5 5.1 9.5 93 0.5 SW 28 39 15 21 1019.1 1019.0 0.0
26/10:00am 10.8 5.3 9.0 89 0.9 SW 28 33 15 18 1019.0 1018.9 0.0
26/09:48am 10.5 5.0 9.3 92 0.6 SW 28 33 15 18 1019.0 1018.9 0.0
26/09:31am 10.2 4.0 9.2 93 0.5 SW 32 41 17 22 1018.9 1018.7 0.0
26/09:30am 10.1 3.9 9.3 95 0.4 SW 32 41 17 22 1018.9 1018.7 0.0
26/09:14am 10.4 6.0 8.8 90 0.8 SW 22 33 12 18 1018.9 1018.7 0.0
26/09:00am 10.1 6.1 8.9 92 0.6 SW 20 28 11 15 1018.7 1018.5 6.6
26/08:53am 9.7 5.7 8.9 95 0.4 SW 20 32 11 17 1018.7 1018.5 6.6
26/08:34am 9.7 4.5 8.7 93 0.5 WSW 26 33 14 18 1018.5 1018.3 6.6
26/08:30am 9.7 4.5 8.7 93 0.5 WSW 26 33 14 18 1018.4 1018.2 6.6
26/08:11am 9.6 4.3 8.6 93 0.5 SW 26 32 14 17 1018.3 1018.1 6.4
26/08:10am 9.6 4.7 8.6 93 0.5 SW 24 32 13 17 1018.3 1018.1 6.4
26/08:00am 9.6 5.1 8.4 92 0.6 WSW 22 32 12 17 1018.2 1018.0 6.4
26/07:54am 9.6 5.4 8.4 92 0.6 SW 20 28 11 15 1017.9 1017.8 6.4
26/07:43am 9.4 5.3 8.6 95 0.4 SW 20 28 11 15 1017.8 1017.7 6.4
26/07:30am 9.2 3.6 8.6 96 0.3 SW 28 35 15 19 1017.6 1017.5 6.4
26/07:23am 9.3 3.6 8.5 95 0.4 SW 28 35 15 19 1017.5 1017.4 6.4
26/07:03am 9.5 4.6 8.3 92 0.6 SW 24 33 13 18 1017.1 1017.0 6.4
26/07:00am 9.5 4.6 8.3 92 0.6 SW 24 33 13 18 1017.1 1017.0 6.4
26/06:30am 9.2 5.1 8.0 92 0.6 SW 19 24 10 13 1016.8 1016.7 6.4
26/05:30am 9.5 4.8 7.8 89 0.8 WSW 22 30 12 16 1016.2 1016.1 6.4
26/05:00am 9.5 4.2 8.5 93 0.5 SW 26 33 14 18 1016.1 1016.0 6.4
26/04:30am 9.6 4.9 7.7 88 0.9 WSW 22 33 12 18 1015.9 1015.8 6.4
26/04:00am 9.5 4.6 8.5 93 0.5 WSW 24 32 13 17 1015.6 1015.5 6.4
26/03:30am 10.0 4.5 7.7 86 1.1 SW 26 35 14 19 1015.4 1015.3 6.4
26/03:00am 10.1 4.6 7.6 84 1.2 SW 26 33 14 18 1015.3 1015.2 6.4
26/02:30am 10.7 5.5 7.4 80 1.6 SW 24 35 13 19 1015.3 1015.2 6.4
26/02:00am 10.7 4.8 7.4 80 1.6 WSW 28 35 15 19 1015.3 1015.2 6.4
26/01:30am 10.9 4.6 7.4 79 1.7 SW 30 41 16 22 1015.2 1015.1 6.4
26/01:00am 11.1 6.4 7.6 79 1.7 WSW 22 30 12 16 1015.1 1015.0 6.4
26/12:30am 11.1 6.1 8.0 81 1.5 SW 24 32 13 17 1014.9 1014.8 6.4
26/12:00am 11.0 5.5 9.0 87 1.0 SW 28 35 15 19 1014.7 1014.6 6.4
 
Date/Time
EST
Temp
°C
App
Temp
°C
Dew
Point
Rel
Hum
%
Delta-T
°C
Wind Press
QNH
hPa
Press
MSL
hPa
Rain
since 9 am
mm
Dir
 
Spd
km/h
Gust
km/h
Spd
kts
Gust
kts
25/11:30pm 11.2 6.2 9.4 89 0.9 SW 26 35 14 19 1014.4 1014.3 6.4
25/11:00pm 11.4 6.0 9.4 87 1.0 SW 28 33 15 18 1014.3 1014.2 6.4
25/10:30pm 11.7 6.2 9.1 84 1.3 SW 28 37 15 20 1014.1 1014.0 6.4
25/10:00pm 12.0 7.7 9.4 84 1.3 SW 22 32 12 17 1014.0 1013.9 6.4
25/09:30pm 12.3 8.1 9.8 85 1.3 SW 22 30 12 16 1013.7 1013.6 6.4
25/09:00pm 12.5 8.0 10.2 86 1.2 SW 24 32 13 17 1013.4 1013.3 6.4
25/08:30pm 12.7 9.1 10.6 87 1.1 SW 20 30 11 16 1013.0 1012.9 6.4
25/08:00pm 12.8 8.4 10.5 86 1.2 SW 24 33 13 18 1012.6 1012.5 6.4
25/07:45pm 12.9 8.9 10.6 86 1.2 SSW 22 30 12 16 1012.5 1012.4 6.4
25/07:30pm 12.8 9.4 11.1 89 0.9 SSW 20 28 11 15 1012.4 1012.3 6.4
25/07:00pm 12.9 9.6 11.0 88 1.0 SSW 19 28 10 15 1012.0 1011.9 6.4
25/06:30pm 12.9 9.7 11.4 91 0.8 SW 19 26 10 14 1011.6 1011.4 6.4
25/06:00pm 12.7 10.9 12.1 96 0.3 SW 13 15 7 8 1011.2 1011.0 6.4
25/05:30pm 12.8 10.1 11.7 93 0.6 WSW 17 24 9 13 1010.6 1010.4 5.8
25/05:18pm 12.6 10.0 11.9 95 0.4 WSW 17 22 9 12 1010.5 1010.3 5.8
25/05:00pm 12.7 10.1 12.0 95 0.4 SW 17 28 9 15 1010.3 1010.1 5.8
25/04:40pm 12.7 10.1 12.1 96 0.3 SW 17 28 9 15 1010.2 1010.0 4.6
25/04:30pm 12.9 10.1 12.5 97 0.2 SSW 19 26 10 14 1010.1 1009.9 4.2
25/04:20pm 13.0 10.5 12.4 96 0.3 SW 17 24 9 13 1010.0 1009.8 3.6
25/04:00pm 13.2 10.4 12.5 95 0.4 SW 19 26 10 14 1009.8 1009.6 3.6
25/03:30pm 13.3 10.5 12.6 95 0.4 SW 19 28 10 15 1009.5 1009.3 3.6
25/03:00pm 13.7 11.8 11.8 88 1.0 WSW 13 17 7 9 1009.3 1009.1 2.4
25/02:30pm 13.6 12.0 11.6 88 1.1 WSW 11 15 6 8 1009.0 1008.9 2.4
25/02:00pm 13.7 12.1 11.5 86 1.2 WSW 11 13 6 7 1008.9 1008.8 2.4
25/01:30pm 13.0 10.9 11.1 88 1.0 WSW 13 15 7 8 1008.7 1008.6 2.4
25/01:00pm 12.9 10.8 11.0 88 1.0 WSW 13 19 7 10 1008.8 1008.7 2.4
25/12:30pm 12.8 10.6 10.9 88 1.0 WSW 13 17 7 9 1009.0 1008.9 2.4
25/12:16pm 12.6 10.4 10.7 88 1.0 WSW 13 17 7 9 1009.1 1009.0 2.2
25/12:00pm 12.2 9.5 10.5 89 0.9 WSW 15 19 8 10 1009.3 1009.1 2.2
25/11:30am 12.1 9.9 10.8 92 0.7 W 13 17 7 9 1009.3 1009.1 2.2
25/11:00am 11.5 9.5 10.1 91 0.7 W 11 15 6 8 1009.4 1009.2 2.2
25/10:30am 11.0 8.6 10.0 93 0.5 WSW 13 15 7 8 1009.3 1009.1 2.2
25/10:00am 10.8 9.0 9.6 92 0.6 W 9 11 5 6 1009.4 1009.2 1.2
25/09:30am 10.7 9.3 9.5 92 0.6 WSW 7 9 4 5 1009.3 1009.1 0.2
25/09:00am 10.7 10.5 9.1 90 0.8 CALM 0 0 0 0 1008.8 1008.7 4.2
25/08:30am 10.4 10.2 9.0 91 0.7 CALM 0 0 0 0 1008.3 1008.2 4.2
25/08:00am 10.3 9.0 9.1 92 0.6 S 6 7 3 4 1008.1 1008.0 4.2
25/07:30am 10.4 8.4 8.8 90 0.8 SSE 9 9 5 5 1007.6 1007.5 4.2
25/07:00am 10.3 8.4 8.9 91 0.7 SSW 9 9 5 5 1007.3 1007.2 4.2
25/06:30am 10.4 7.6 8.6 89 0.9 WSW 13 17 7 9 1007.3 1007.2 4.2
25/06:00am 10.5 7.8 8.9 90 0.8 W 13 17 7 9 1007.0 1006.9 4.2
25/05:52am 10.4 7.7 9.0 91 0.7 W 13 17 7 9 1007.0 1006.9 4.2
25/05:30am 10.6 7.6 9.4 92 0.6 W 15 19 8 10 1007.0 1006.9 4.2
25/05:00am 10.8 6.8 9.2 90 0.8 W 20 26 11 14 1006.7 1006.6 4.0
25/04:57am 10.8 6.9 9.4 91 0.7 W 20 28 11 15 1006.7 1006.6 4.0
25/04:42am 11.9 10.0 11.7 99 0.1 SW 13 19 7 10 1006.4 1006.3 3.8
25/04:34am 12.0 10.4 11.6 97 0.2 SSW 11 13 6 7 1006.1 1006.0 3.2
25/04:30am 12.0 10.8 11.6 97 0.2 SSW 9 11 5 6 1006.1 1006.0 3.2
25/04:00am 12.1 12.6 11.7 97 0.2 CALM 0 0 0 0 1006.2 1006.1 3.0
25/03:40am 12.2 12.7 11.6 96 0.3 CALM 0 0 0 0 1006.3 1006.2 3.0
25/03:30am 12.2 12.7 11.6 96 0.3 CALM 0 0 0 0 1006.4 1006.3 3.0
25/03:00am 12.4 11.8 11.7 95 0.4 WSW 6 13 3 7 1006.3 1006.2 3.0
25/02:57am 12.3 12.0 11.6 95 0.4 SW 4 11 2 6 1006.3 1006.2 3.0
25/02:38am 12.5 10.5 11.4 93 0.6 SE 13 15 7 8 1005.8 1005.7 3.0
25/02:30am 12.6 11.7 11.3 92 0.7 SE 7 13 4 7 1005.9 1005.8 3.0
25/02:00am 12.6 12.4 11.9 95 0.4 SE 4 7 2 4 1006.4 1006.3 3.0
25/01:31am 12.4 11.3 11.8 96 0.3 SSE 9 11 5 6 1006.4 1006.3 3.0
25/01:30am 12.4 11.3 12.0 97 0.2 SSE 9 11 5 6 1006.4 1006.3 3.0
25/01:00am 12.6 10.8 12.0 96 0.3 SSE 13 15 7 8 1006.5 1006.4 3.0
25/12:30am 12.5 11.8 11.9 96 0.3 S 7 9 4 5 1006.5 1006.4 2.2
25/12:00am 13.1 11.6 11.8 92 0.7 ESE 11 15 6 8 1006.4 1006.3 2.2
 
Date/Time
EST
Temp
°C
App
Temp
°C
Dew
Point
Rel
Hum
%
Delta-T
°C
Wind Press
QNH
hPa
Press
MSL
hPa
Rain
since 9 am
mm
Dir
 
Spd
km/h
Gust
km/h
Spd
kts
Gust
kts
24/11:30pm 13.0 11.7 11.3 89 0.9 ENE 9 11 5 6 1006.3 1006.2 2.2
24/11:00pm 12.7 11.9 11.6 93 0.6 NNE 7 13 4 7 1006.4 1006.3 2.0
24/10:30pm 12.8 11.2 11.7 93 0.6 N 11 13 6 7 1006.2 1006.1 2.0
24/10:00pm 12.7 11.8 11.4 92 0.7 W 7 9 4 5 1006.2 1006.1 2.0
24/09:30pm 13.0 10.5 11.1 88 1.0 W 15 20 8 11 1006.3 1006.2 1.8
24/09:19pm 13.0 9.6 11.3 89 0.9 W 20 32 11 17 1006.3 1006.2 1.4
24/09:00pm 13.1 6.7 10.8 86 1.2 W 35 48 19 26 1006.4 1006.3 0.8
24/08:52pm 14.3 11.1 10.1 76 2.2 W 17 46 9 25 1006.2 1006.1 0.4
24/08:30pm 16.2 14.0 9.3 63 3.6 N 11 17 6 9 1005.3 1005.2 0.0
24/08:00pm 16.1 13.8 9.0 63 3.7 N 11 15 6 8 1005.0 1004.9 0.0
24/07:30pm 16.4 14.2 9.3 63 3.7 NNE 11 15 6 8 1004.8 1004.7 0.0
24/07:00pm 17.1 14.2 8.1 55 4.6 NW 13 17 7 9 1004.9 1004.8 0.0
24/06:30pm 17.6 14.7 8.1 53 4.9 NW 13 17 7 9 1004.5 1004.3 0.0
24/06:00pm 18.0 15.0 7.6 50 5.3 NW 13 17 7 9 1004.1 1003.9 0.0
24/05:30pm 19.0 15.3 7.8 48 5.8 NW 17 22 9 12 1003.7 1003.5 0.0
24/05:00pm 19.0 16.5 8.0 49 5.7 NNW 11 15 6 8 1003.5 1003.3 0.0
24/04:30pm 19.4 15.1 7.8 47 6.0 NNW 20 30 11 16 1003.4 1003.2 0.0
24/04:00pm 19.7 16.0 8.0 46 6.1 NW 17 24 9 13 1003.2 1003.0 0.0
24/03:30pm 19.7 15.6 8.0 46 6.1 WNW 19 26 10 14 1003.0 1002.8 0.0
24/03:00pm 20.4 16.4 8.2 45 6.4 WNW 19 28 10 15 1003.1 1002.9 0.0
24/02:30pm 20.0 15.8 8.2 46 6.2 WNW 20 30 11 16 1003.2 1003.0 0.0
24/02:00pm 20.8 16.7 8.8 46 6.4 WNW 20 32 11 17 1003.4 1003.2 0.0
24/01:30pm 19.6 16.1 8.6 49 5.8 NW 17 24 9 13 1003.5 1003.3 0.0
24/01:00pm 20.0 16.2 8.9 48 5.9 NW 19 26 10 14 1003.7 1003.5 0.0
24/12:30pm 20.1 17.4 9.0 48 5.9 NW 13 28 7 15 1004.0 1003.8 0.0
24/12:00pm 18.9 17.8 10.6 58 4.5 NW 7 13 4 7 1004.5 1004.3 0.0
24/11:30am 18.1 16.9 10.3 60 4.2 WNW 7 13 4 7 1004.9 1004.8 0.0
24/11:00am 17.8 17.7 10.8 63 3.8 NNE 2 9 1 5 1005.1 1005.0 0.0
24/10:30am 17.3 16.4 10.8 65 3.5 NNE 6 9 3 5 1005.3 1005.2 0.0
24/10:00am 16.7 15.5 11.6 72 2.8 NNW 9 11 5 6 1005.5 1005.4 0.0
24/09:30am 15.9 14.0 11.7 76 2.3 N 13 15 7 8 1005.8 1005.7 0.0
24/09:00am 14.9 13.1 12.2 84 1.5 N 13 17 7 9 1005.6 1005.5 0.2
24/08:30am 14.1 12.0 12.5 90 0.9 NNE 15 20 8 11 1005.8 1005.7 0.2
24/08:00am 13.1 11.6 12.0 93 0.6 N 11 13 6 7 1005.7 1005.6 0.2
24/07:30am 12.9 11.8 12.0 94 0.5 N 9 9 5 5 1005.6 1005.5 0.2
24/07:00am 12.7 11.6 11.8 94 0.5 N 9 11 5 6 1005.4 1005.3 0.2
24/06:30am 12.3 11.6 11.9 97 0.2 NNW 7 7 4 4 1005.3 1005.2 0.2
24/06:00am 12.1 11.5 11.7 97 0.2 WSW 6 9 3 5 1005.4 1005.3 0.2
24/05:30am 12.3 12.5 11.7 96 0.3 NNE 2 7 1 4 1005.3 1005.2 0.2
24/05:15am 13.0 11.7 12.5 97 0.3 N 11 13 6 7 1005.3 1005.2 0.2
24/05:12am 13.1 11.8 12.4 95 0.4 N 11 13 6 7 1005.3 1005.2 0.2

Other Formats:

Comma delimited format used in spreadsheet applications
http://www.bom.gov.au/fwo/IDV60801/IDV60801.94866.axf

JavaScript Object Notation format (JSON) in row-major order
http://www.bom.gov.au/fwo/IDV60801/IDV60801.94866.json